createdAt,value
2022-08-30T00:00:18.321Z,3.20
2022-08-30T00:01:18.562Z,3.00
2022-08-30T00:02:18.954Z,2.70
2022-08-30T00:03:19.321Z,2.90
2022-08-30T00:04:19.294Z,3.00
2022-08-30T00:05:19.529Z,5.00
2022-08-30T00:06:19.763Z,3.60
2022-08-30T00:07:20.005Z,3.00
2022-08-30T00:08:20.235Z,3.10
2022-08-30T00:09:20.474Z,4.60
2022-08-30T00:10:20.715Z,3.50
2022-08-30T00:11:20.944Z,3.20
2022-08-30T00:12:21.188Z,3.90
2022-08-30T00:13:21.416Z,3.10
2022-08-30T00:14:21.655Z,3.60
2022-08-30T00:15:21.897Z,3.10
2022-08-30T00:16:22.186Z,3.40
2022-08-30T00:17:22.419Z,4.00
2022-08-30T00:18:22.647Z,3.10
2022-08-30T00:19:22.966Z,3.30
2022-08-30T00:20:23.198Z,3.30
2022-08-30T00:21:23.436Z,3.20
2022-08-30T00:22:30.850Z,3.20
2022-08-30T00:23:24.325Z,3.50
2022-08-30T00:24:24.235Z,3.30
2022-08-30T00:25:24.474Z,3.00
2022-08-30T00:26:24.715Z,3.10
2022-08-30T00:27:24.956Z,2.80
2022-08-30T00:28:25.202Z,3.30
2022-08-30T00:29:25.437Z,4.80
2022-08-30T00:30:25.677Z,3.10
2022-08-30T00:31:25.972Z,3.20
2022-08-30T00:32:26.197Z,4.00
2022-08-30T00:33:26.449Z,3.10
2022-08-30T00:34:26.687Z,3.00
2022-08-30T00:35:26.918Z,3.80
2022-08-30T00:36:27.149Z,3.00
2022-08-30T00:37:27.399Z,3.00
2022-08-30T00:38:27.640Z,3.30
2022-08-30T00:39:27.869Z,3.00
2022-08-30T00:40:28.154Z,2.80
2022-08-30T00:41:28.390Z,3.00
2022-08-30T00:42:28.688Z,3.20
2022-08-30T00:43:28.922Z,3.50
2022-08-30T00:44:29.160Z,3.20
2022-08-30T00:45:29.391Z,2.80
2022-08-30T00:46:29.687Z,3.30
2022-08-30T00:47:29.933Z,3.60
2022-08-30T00:48:30.163Z,3.20
2022-08-30T00:49:30.404Z,2.80
2022-08-30T00:50:30.680Z,3.00
2022-08-30T00:51:30.914Z,3.40
2022-08-30T00:52:31.162Z,2.80
2022-08-30T00:53:31.404Z,3.20
2022-08-30T00:54:31.644Z,4.10
2022-08-30T00:55:31.885Z,3.20
2022-08-30T00:56:32.125Z,2.90
2022-08-30T00:57:32.366Z,3.20
2022-08-30T00:58:32.606Z,3.20
2022-08-30T00:59:32.847Z,3.00
2022-08-30T01:00:33.085Z,3.40
2022-08-30T01:01:34.276Z,3.20
2022-08-30T01:02:33.646Z,3.20
2022-08-30T01:03:33.868Z,3.20
2022-08-30T01:04:34.107Z,3.30
2022-08-30T01:05:34.339Z,3.30
2022-08-30T01:06:34.578Z,3.20
2022-08-30T01:07:34.818Z,2.90
2022-08-30T01:08:35.049Z,3.80
2022-08-30T01:09:35.289Z,3.10
2022-08-30T01:10:35.549Z,3.20
2022-08-30T01:11:35.791Z,2.90
2022-08-30T01:12:36.031Z,2.80
2022-08-30T01:13:36.273Z,2.50
2022-08-30T01:14:36.511Z,3.10
2022-08-30T01:15:36.835Z,3.00
2022-08-30T01:16:37.085Z,3.70
2022-08-30T01:17:37.323Z,3.30
2022-08-30T01:18:37.563Z,3.10
2022-08-30T01:19:37.863Z,2.90
2022-08-30T01:20:38.115Z,3.00
2022-08-30T01:21:38.351Z,3.50
2022-08-30T01:22:38.594Z,3.00
2022-08-30T01:23:38.813Z,2.70
2022-08-30T01:24:39.124Z,3.10
2022-08-30T01:25:39.414Z,2.80
2022-08-30T01:26:39.656Z,3.30
2022-08-30T01:27:39.897Z,2.90
2022-08-30T01:28:40.126Z,2.80
2022-08-30T01:29:40.366Z,2.80
2022-08-30T01:30:40.658Z,3.10
2022-08-30T01:31:40.896Z,3.10
2022-08-30T01:32:41.137Z,3.30
2022-08-30T01:33:41.375Z,2.80
2022-08-30T01:34:41.610Z,2.90
2022-08-30T01:35:41.848Z,2.80
2022-08-30T01:36:44.955Z,3.10
2022-08-30T01:37:42.309Z,3.10
2022-08-30T01:38:42.549Z,3.10
2022-08-30T01:39:42.782Z,3.40
2022-08-30T01:40:43.045Z,3.40
2022-08-30T01:41:43.281Z,3.60
2022-08-30T01:42:43.520Z,3.20
2022-08-30T01:43:43.761Z,3.40
2022-08-30T01:44:44.002Z,3.10
2022-08-30T01:45:44.311Z,3.60
2022-08-30T01:46:44.551Z,3.10
2022-08-30T01:47:44.792Z,3.00
2022-08-30T01:48:50.349Z,3.10
2022-08-30T01:49:46.261Z,2.80
2022-08-30T01:50:45.574Z,3.50
2022-08-30T01:51:45.814Z,3.00
2022-08-30T01:52:46.094Z,3.00
2022-08-30T01:53:46.322Z,3.10
2022-08-30T01:54:46.562Z,3.10
2022-08-30T01:55:46.802Z,3.50
2022-08-30T01:56:47.044Z,3.20
2022-08-30T01:57:47.285Z,2.80
2022-08-30T01:58:47.534Z,3.40
2022-08-30T01:59:47.808Z,2.90
2022-08-30T02:00:48.027Z,2.80
2022-08-30T02:01:48.287Z,3.20
2022-08-30T02:02:48.517Z,3.30
2022-08-30T02:03:48.828Z,3.00
2022-08-30T02:04:49.069Z,3.10
2022-08-30T02:05:49.311Z,2.60
2022-08-30T02:06:49.549Z,3.70
2022-08-30T02:07:49.789Z,3.20
2022-08-30T02:08:50.028Z,3.00
2022-08-30T02:09:50.280Z,2.70
2022-08-30T02:10:50.531Z,3.10
2022-08-30T02:11:50.761Z,2.80
2022-08-30T02:12:51.008Z,3.00
2022-08-30T02:13:51.250Z,3.00
2022-08-30T02:14:51.490Z,3.00
2022-08-30T02:15:51.731Z,2.90
2022-08-30T02:16:52.026Z,2.80
2022-08-30T02:17:52.252Z,2.90
2022-08-30T02:18:52.487Z,2.70
2022-08-30T02:19:52.720Z,2.90
2022-08-30T02:20:52.953Z,3.20
2022-08-30T02:21:53.194Z,2.80
2022-08-30T02:22:53.493Z,2.90
2022-08-30T02:23:53.733Z,3.80
2022-08-30T02:24:53.982Z,3.40
2022-08-30T02:25:54.224Z,3.10
2022-08-30T02:26:54.467Z,2.80
2022-08-30T02:28:01.749Z,3.20
2022-08-30T02:28:54.981Z,2.90
2022-08-30T02:29:55.270Z,3.20
2022-08-30T02:30:55.616Z,2.90
2022-08-30T02:31:55.842Z,3.00
2022-08-30T02:32:56.094Z,2.80
2022-08-30T02:33:56.323Z,3.80
2022-08-30T02:34:56.562Z,3.30
2022-08-30T02:35:56.802Z,3.10
2022-08-30T02:36:57.043Z,3.10
2022-08-30T02:37:57.293Z,3.10
2022-08-30T02:38:57.534Z,3.00
2022-08-30T02:39:57.811Z,2.80
2022-08-30T02:40:58.053Z,3.10
2022-08-30T02:41:58.300Z,2.80
2022-08-30T02:42:58.555Z,3.30
2022-08-30T02:43:58.825Z,2.90
2022-08-30T02:44:59.065Z,3.30
2022-08-30T02:45:59.355Z,2.90
2022-08-30T02:46:59.597Z,2.90
2022-08-30T02:47:59.838Z,3.50
2022-08-30T02:49:05.605Z,3.10
2022-08-30T02:50:01.304Z,4.90
2022-08-30T02:51:00.599Z,2.60
2022-08-30T02:52:00.842Z,3.60
2022-08-30T02:53:01.089Z,3.10
2022-08-30T02:54:01.326Z,2.80
2022-08-30T02:55:01.643Z,2.70
2022-08-30T02:56:01.879Z,2.90
2022-08-30T02:57:02.119Z,3.30
2022-08-30T02:58:02.360Z,3.00
2022-08-30T02:59:02.602Z,3.40
2022-08-30T03:00:02.840Z,3.00
2022-08-30T03:01:03.113Z,3.80
2022-08-30T03:02:03.343Z,3.40
2022-08-30T03:03:03.591Z,3.10
2022-08-30T03:04:03.865Z,2.90
2022-08-30T03:05:04.112Z,3.10
2022-08-30T03:06:04.352Z,3.10
2022-08-30T03:07:04.595Z,3.20
2022-08-30T03:08:04.833Z,3.20
2022-08-30T03:09:05.073Z,3.10
2022-08-30T03:10:05.314Z,2.90
2022-08-30T03:11:05.556Z,2.80
2022-08-30T03:12:05.793Z,3.20
2022-08-30T03:13:06.035Z,2.90
2022-08-30T03:14:06.275Z,2.80
2022-08-30T03:15:06.517Z,3.00
2022-08-30T03:16:06.810Z,3.40
2022-08-30T03:17:07.065Z,3.10
2022-08-30T03:18:08.295Z,3.10
2022-08-30T03:19:07.596Z,3.10
2022-08-30T03:20:07.837Z,3.00
2022-08-30T03:21:08.077Z,3.20
2022-08-30T03:22:08.317Z,3.00
2022-08-30T03:23:08.567Z,3.20
2022-08-30T03:24:08.798Z,3.10
2022-08-30T03:25:09.039Z,2.90
2022-08-30T03:26:09.288Z,3.40
2022-08-30T03:27:09.528Z,2.90
2022-08-30T03:28:09.776Z,3.40
2022-08-30T03:29:10.018Z,3.10
2022-08-30T03:30:10.300Z,3.40
2022-08-30T03:31:10.540Z,2.80
2022-08-30T03:32:10.802Z,3.20
2022-08-30T03:33:11.434Z,3.00
2022-08-30T03:34:11.302Z,2.60
2022-08-30T03:35:11.552Z,3.00
2022-08-30T03:36:11.788Z,4.20
2022-08-30T03:37:12.022Z,2.90
2022-08-30T03:38:12.271Z,4.10
2022-08-30T03:39:12.549Z,2.90
2022-08-30T03:40:12.903Z,2.50
2022-08-30T03:41:13.012Z,2.90
2022-08-30T03:42:13.314Z,3.50
2022-08-30T03:43:13.563Z,2.80
2022-08-30T03:44:13.804Z,3.10
2022-08-30T03:45:14.082Z,2.90
2022-08-30T03:46:14.337Z,3.20
2022-08-30T03:47:14.575Z,2.70
2022-08-30T03:48:14.816Z,2.60
2022-08-30T03:49:15.055Z,4.80
2022-08-30T03:50:15.293Z,3.30
2022-08-30T03:51:15.534Z,2.70
2022-08-30T03:52:15.767Z,3.20
2022-08-30T03:53:16.174Z,2.80
2022-08-30T03:54:16.294Z,2.80
2022-08-30T03:55:16.530Z,2.80
2022-08-30T03:56:16.768Z,2.90
2022-08-30T03:57:20.052Z,3.10
2022-08-30T03:58:19.296Z,4.10
2022-08-30T03:59:17.528Z,3.20
2022-08-30T04:00:17.760Z,3.10
2022-08-30T04:01:18.031Z,3.00
2022-08-30T04:02:18.386Z,3.30
2022-08-30T04:03:18.817Z,3.50
2022-08-30T04:04:20.964Z,2.70
2022-08-30T04:05:19.021Z,3.10
2022-08-30T04:06:19.262Z,2.80
2022-08-30T04:07:19.510Z,2.90
2022-08-30T04:08:19.750Z,4.20
2022-08-30T04:09:19.992Z,3.20
2022-08-30T04:10:20.241Z,4.20
2022-08-30T04:11:20.482Z,2.80
2022-08-30T04:12:22.846Z,2.60
2022-08-30T04:13:21.064Z,3.70
2022-08-30T04:14:21.304Z,3.30
2022-08-30T04:15:21.555Z,2.70
2022-08-30T04:16:21.854Z,2.80
2022-08-30T04:17:22.055Z,2.90
2022-08-30T04:18:22.295Z,3.00
2022-08-30T04:19:22.536Z,2.70
2022-08-30T04:20:22.807Z,3.00
2022-08-30T04:21:23.116Z,3.60
2022-08-30T04:22:23.356Z,3.50
2022-08-30T04:23:23.605Z,2.90
2022-08-30T04:24:23.838Z,3.20
2022-08-30T04:25:24.078Z,2.90
2022-08-30T04:26:29.265Z,2.80
2022-08-30T04:27:25.548Z,3.10
2022-08-30T04:28:24.849Z,3.20
2022-08-30T04:29:25.105Z,3.20
2022-08-30T04:30:25.330Z,3.10
2022-08-30T04:31:25.613Z,3.00
2022-08-30T04:32:25.869Z,3.00
2022-08-30T04:33:26.112Z,3.00
2022-08-30T04:34:26.356Z,3.40
2022-08-30T04:35:26.591Z,3.20
2022-08-30T04:36:26.831Z,3.10
2022-08-30T04:37:27.128Z,2.90
2022-08-30T04:38:30.363Z,3.20
2022-08-30T04:39:27.633Z,3.10
2022-08-30T04:40:27.905Z,3.20
2022-08-30T04:41:28.172Z,2.90
2022-08-30T04:42:28.413Z,2.90
2022-08-30T04:43:28.653Z,2.80
2022-08-30T04:44:28.894Z,3.30
2022-08-30T04:45:29.199Z,2.90
2022-08-30T04:46:29.424Z,3.00
2022-08-30T04:47:29.664Z,3.50
2022-08-30T04:48:29.917Z,3.10
2022-08-30T04:49:30.155Z,3.20
2022-08-30T04:50:30.393Z,3.00
2022-08-30T04:51:30.697Z,3.40
2022-08-30T04:52:30.936Z,2.90
2022-08-30T04:53:31.177Z,3.10
2022-08-30T04:54:31.417Z,2.70
2022-08-30T04:55:31.658Z,2.80
2022-08-30T04:56:31.897Z,3.00
2022-08-30T04:57:32.141Z,2.90
2022-08-30T04:58:32.378Z,2.60
2022-08-30T04:59:32.620Z,2.60
2022-08-30T05:00:32.928Z,3.10
2022-08-30T05:01:36.735Z,2.90
2022-08-30T05:02:34.478Z,2.80
2022-08-30T05:03:33.671Z,4.80
2022-08-30T05:04:33.929Z,3.10
2022-08-30T05:05:34.177Z,2.80
2022-08-30T05:06:34.503Z,2.80
2022-08-30T05:07:34.731Z,6.40
2022-08-30T05:08:35.012Z,2.80
2022-08-30T05:09:35.262Z,2.50
2022-08-30T05:10:35.520Z,2.70
2022-08-30T05:11:35.773Z,3.00
2022-08-30T05:12:36.023Z,2.30
2022-08-30T05:13:37.084Z,2.30
2022-08-30T05:14:36.533Z,2.30
2022-08-30T05:15:36.784Z,2.30
2022-08-30T05:16:37.121Z,2.30
2022-08-30T05:17:37.338Z,2.40
2022-08-30T05:18:37.606Z,3.10
2022-08-30T05:19:37.856Z,2.00
2022-08-30T05:20:38.116Z,2.30
2022-08-30T05:21:38.376Z,2.10
2022-08-30T05:22:38.628Z,1.80
2022-08-30T05:23:38.897Z,2.20
2022-08-30T05:24:39.157Z,2.10
2022-08-30T05:25:39.407Z,2.00
2022-08-30T05:26:39.738Z,2.30
2022-08-30T05:27:39.976Z,2.80
2022-08-30T05:28:40.237Z,2.40
2022-08-30T05:29:40.489Z,2.30
2022-08-30T05:30:40.747Z,2.20
2022-08-30T05:31:41.064Z,2.10
2022-08-30T05:32:41.292Z,2.40
2022-08-30T05:33:41.550Z,2.30
2022-08-30T05:34:41.801Z,2.60
2022-08-30T05:35:42.050Z,2.40
2022-08-30T05:36:42.309Z,2.20
2022-08-30T05:37:42.561Z,2.00
2022-08-30T05:38:42.901Z,3.30
2022-08-30T05:39:50.923Z,2.00
2022-08-30T05:40:44.428Z,2.20
2022-08-30T05:41:43.660Z,2.10
2022-08-30T05:42:43.893Z,2.80
2022-08-30T05:43:44.161Z,2.00
2022-08-30T05:44:44.522Z,1.80
2022-08-30T05:45:44.776Z,2.00
2022-08-30T05:46:45.034Z,2.20
2022-08-30T05:47:45.295Z,2.20
2022-08-30T05:48:45.573Z,2.20
2022-08-30T05:49:45.835Z,2.30
2022-08-30T05:50:46.105Z,2.20
2022-08-30T05:51:46.376Z,2.50
2022-08-30T05:52:46.644Z,2.30
2022-08-30T05:53:46.907Z,2.50
2022-08-30T05:54:47.177Z,2.10
2022-08-30T05:55:47.444Z,2.40
2022-08-30T05:56:47.717Z,2.40
2022-08-30T05:57:47.986Z,2.30
2022-08-30T05:58:48.260Z,2.40
2022-08-30T05:59:48.529Z,2.30
2022-08-30T06:00:48.847Z,2.40
2022-08-30T06:01:49.180Z,2.40
2022-08-30T06:02:49.449Z,3.40
2022-08-30T06:03:49.699Z,2.90
2022-08-30T06:04:49.970Z,2.50
2022-08-30T06:05:50.211Z,3.10
2022-08-30T06:06:50.501Z,2.60
2022-08-30T06:07:50.761Z,3.10
2022-08-30T06:08:51.044Z,2.50
2022-08-30T06:09:51.311Z,2.60
2022-08-30T06:10:51.578Z,3.30
2022-08-30T06:11:51.842Z,3.00
2022-08-30T06:12:52.112Z,2.50
2022-08-30T06:13:52.392Z,4.20
2022-08-30T06:14:53.610Z,2.80
2022-08-30T06:15:53.038Z,2.70
2022-08-30T06:16:53.303Z,2.50
2022-08-30T06:17:53.574Z,2.80
2022-08-30T06:18:53.854Z,2.60
2022-08-30T06:19:54.133Z,2.60
2022-08-30T06:20:54.405Z,2.90
2022-08-30T06:21:54.666Z,4.60
2022-08-30T06:22:54.936Z,2.80
2022-08-30T06:23:55.235Z,2.50
2022-08-30T06:24:57.755Z,2.60
2022-08-30T06:25:55.827Z,2.80
2022-08-30T06:26:56.096Z,2.60
2022-08-30T06:27:56.755Z,2.60
2022-08-30T06:28:56.608Z,3.40
2022-08-30T06:29:56.886Z,2.90
2022-08-30T06:30:57.183Z,2.80
2022-08-30T06:31:57.439Z,3.20
2022-08-30T06:32:57.729Z,3.00
2022-08-30T06:33:57.999Z,2.90
2022-08-30T06:34:58.271Z,5.10
2022-08-30T06:36:00.447Z,4.30
2022-08-30T06:36:58.780Z,2.50
2022-08-30T06:37:59.041Z,2.70
2022-08-30T06:38:59.362Z,3.90
2022-08-30T06:39:59.667Z,3.50
2022-08-30T06:40:59.950Z,3.00
2022-08-30T06:42:00.222Z,2.90
2022-08-30T06:43:00.493Z,3.40
2022-08-30T06:44:00.772Z,4.20
2022-08-30T06:45:01.045Z,6.00
2022-08-30T06:46:01.314Z,3.70
2022-08-30T06:47:01.691Z,4.60
2022-08-30T06:48:01.828Z,4.10
2022-08-30T06:49:02.093Z,5.30
2022-08-30T06:50:02.354Z,5.70
2022-08-30T06:51:02.626Z,6.10
2022-08-30T06:52:02.945Z,10.00
2022-08-30T06:53:03.225Z,6.10
2022-08-30T06:54:03.509Z,8.10
2022-08-30T06:55:03.767Z,6.20
2022-08-30T06:56:04.067Z,7.90
2022-08-30T06:57:04.337Z,7.60
2022-08-30T06:58:04.625Z,6.10
2022-08-30T06:59:04.897Z,9.80
2022-08-30T07:00:05.158Z,5.40
2022-08-30T07:01:05.446Z,7.70
2022-08-30T07:02:05.810Z,7.10
2022-08-30T07:03:06.066Z,8.70
2022-08-30T07:04:06.329Z,6.10
2022-08-30T07:05:06.600Z,5.40
2022-08-30T07:06:06.881Z,13.00
2022-08-30T07:07:07.150Z,6.20
2022-08-30T07:08:07.421Z,6.90
2022-08-30T07:09:07.699Z,5.80
2022-08-30T07:10:08.056Z,8.90
2022-08-30T07:11:08.327Z,4.90
2022-08-30T07:12:08.603Z,5.10
2022-08-30T07:13:08.874Z,8.60
2022-08-30T07:14:09.143Z,8.30
2022-08-30T07:15:09.424Z,8.50
2022-08-30T07:16:09.750Z,13.60
2022-08-30T07:17:10.014Z,16.30
2022-08-30T07:18:10.314Z,6.30
2022-08-30T07:19:20.304Z,7.00
2022-08-30T07:20:11.834Z,6.50
2022-08-30T07:21:11.165Z,5.50
2022-08-30T07:22:11.478Z,6.00
2022-08-30T07:23:11.735Z,5.90
2022-08-30T07:24:12.018Z,4.70
2022-08-30T07:25:12.286Z,6.10
2022-08-30T07:26:12.554Z,8.00
2022-08-30T07:27:12.871Z,5.60
2022-08-30T07:28:13.147Z,6.20
2022-08-30T07:29:13.419Z,4.10
2022-08-30T07:30:13.698Z,5.50
2022-08-30T07:31:13.971Z,6.60
2022-08-30T07:32:14.247Z,4.90
2022-08-30T07:33:14.519Z,8.00
2022-08-30T07:34:14.790Z,5.00
2022-08-30T07:35:15.059Z,7.20
2022-08-30T07:36:15.330Z,8.20
2022-08-30T07:37:18.063Z,9.70
2022-08-30T07:38:15.853Z,8.60
2022-08-30T07:39:16.131Z,7.30
2022-08-30T07:40:16.432Z,7.90
2022-08-30T07:41:16.691Z,5.60
2022-08-30T07:42:16.960Z,7.30
2022-08-30T07:43:17.407Z,6.20
2022-08-30T07:44:17.574Z,7.90
2022-08-30T07:45:17.843Z,9.40
2022-08-30T07:46:18.176Z,10.00
2022-08-30T07:47:18.453Z,10.00
2022-08-30T07:48:18.736Z,8.40
2022-08-30T07:49:19.014Z,6.60
2022-08-30T07:50:19.309Z,9.90
2022-08-30T07:51:19.574Z,12.00
2022-08-30T07:52:19.854Z,7.70
2022-08-30T07:53:20.177Z,9.70
2022-08-30T07:54:20.426Z,8.40
2022-08-30T07:55:20.715Z,11.80
2022-08-30T07:56:21.006Z,6.10
2022-08-30T07:57:21.277Z,5.60
2022-08-30T07:58:21.555Z,5.80
2022-08-30T07:59:21.827Z,5.50
2022-08-30T08:00:22.097Z,7.80
2022-08-30T08:01:22.442Z,7.00
2022-08-30T08:02:22.709Z,8.20
2022-08-30T08:03:22.976Z,5.40
2022-08-30T08:04:23.248Z,7.40
2022-08-30T08:05:24.935Z,5.20
2022-08-30T08:06:23.759Z,6.70
2022-08-30T08:07:24.029Z,6.60
2022-08-30T08:08:24.300Z,6.40
2022-08-30T08:09:24.581Z,9.10
2022-08-30T08:10:24.870Z,23.00
2022-08-30T08:11:25.171Z,9.40
2022-08-30T08:12:25.443Z,6.50
2022-08-30T08:13:28.058Z,8.50
2022-08-30T08:14:26.016Z,9.70
2022-08-30T08:15:26.292Z,7.40
2022-08-30T08:16:26.563Z,5.40
2022-08-30T08:17:26.833Z,7.40
2022-08-30T08:18:27.103Z,7.00
2022-08-30T08:19:27.383Z,7.50
2022-08-30T08:20:27.681Z,7.40
2022-08-30T08:21:27.953Z,6.10
2022-08-30T08:22:28.244Z,6.90
2022-08-30T08:23:28.517Z,7.00
2022-08-30T08:24:28.824Z,6.10
2022-08-30T08:25:29.095Z,7.30
2022-08-30T08:26:29.412Z,6.60
2022-08-30T08:27:29.687Z,7.30
2022-08-30T08:28:29.956Z,7.60
2022-08-30T08:29:30.227Z,11.60
2022-08-30T08:30:31.467Z,5.10
2022-08-30T08:31:33.064Z,6.90
2022-08-30T08:32:31.068Z,8.20
2022-08-30T08:33:31.338Z,8.80
2022-08-30T08:34:31.629Z,9.80
2022-08-30T08:35:31.918Z,5.10
2022-08-30T08:36:32.189Z,6.00
2022-08-30T08:37:32.467Z,7.10
2022-08-30T08:38:32.741Z,11.30
2022-08-30T08:39:33.050Z,11.60
2022-08-30T08:40:33.379Z,13.60
2022-08-30T08:41:33.650Z,9.20
2022-08-30T08:42:33.921Z,11.50
2022-08-30T08:43:34.212Z,7.00
2022-08-30T08:44:34.988Z,6.20
2022-08-30T08:45:34.741Z,5.80
2022-08-30T08:46:35.193Z,6.70
2022-08-30T08:47:35.283Z,5.20
2022-08-30T08:48:51.926Z,7.80
2022-08-30T08:49:36.813Z,5.80
2022-08-30T08:50:36.143Z,4.00
2022-08-30T08:51:36.413Z,5.20
2022-08-30T08:52:36.685Z,6.50
2022-08-30T08:53:46.310Z,6.80
2022-08-30T08:54:38.185Z,5.80
2022-08-30T08:55:37.546Z,5.70
2022-08-30T08:56:37.805Z,6.60
2022-08-30T08:57:38.078Z,4.40
2022-08-30T08:58:38.354Z,8.00
2022-08-30T08:59:38.635Z,8.50
2022-08-30T09:00:38.899Z,9.00
2022-08-30T09:01:39.228Z,6.50
2022-08-30T09:02:39.478Z,7.10
2022-08-30T09:03:39.758Z,8.50
2022-08-30T09:04:40.072Z,13.70
2022-08-30T09:05:40.338Z,11.50
2022-08-30T09:06:45.294Z,6.80
2022-08-30T09:07:41.879Z,9.80
2022-08-30T09:08:41.210Z,7.60
2022-08-30T09:09:41.545Z,9.60
2022-08-30T09:10:50.818Z,10.60
2022-08-30T09:11:44.394Z,7.30
2022-08-30T09:12:42.393Z,9.70
2022-08-30T09:13:42.671Z,8.70
2022-08-30T09:14:46.076Z,8.90
2022-08-30T09:15:43.378Z,8.20
2022-08-30T09:16:43.662Z,9.60
2022-08-30T09:17:43.932Z,10.20
2022-08-30T09:18:45.346Z,9.00
2022-08-30T09:19:44.608Z,10.90
2022-08-30T09:20:44.899Z,6.30
2022-08-30T09:21:45.174Z,8.50
2022-08-30T09:22:46.579Z,15.00
2022-08-30T09:23:45.676Z,7.30
2022-08-30T09:24:45.955Z,12.00
2022-08-30T09:25:46.236Z,11.30
2022-08-30T09:26:46.528Z,8.50
2022-08-30T09:27:46.800Z,7.30
2022-08-30T09:28:47.073Z,8.40
2022-08-30T09:29:47.322Z,8.00
2022-08-30T09:30:47.572Z,6.60
2022-08-30T09:31:47.829Z,7.90
2022-08-30T09:32:48.098Z,9.50
2022-08-30T09:33:48.377Z,9.10
2022-08-30T09:34:48.658Z,6.60
2022-08-30T09:35:48.929Z,9.80
2022-08-30T09:36:49.199Z,7.40
2022-08-30T09:37:49.469Z,6.40
2022-08-30T09:38:49.749Z,6.80
2022-08-30T09:39:50.019Z,8.10
2022-08-30T09:40:50.303Z,7.80
2022-08-30T09:41:50.641Z,9.20
2022-08-30T09:42:50.919Z,6.70
2022-08-30T09:43:51.193Z,9.60
2022-08-30T09:44:51.511Z,10.10
2022-08-30T09:45:51.828Z,6.90
2022-08-30T09:46:52.053Z,5.70
2022-08-30T09:47:52.353Z,10.10
2022-08-30T09:48:52.663Z,10.40
2022-08-30T09:49:52.943Z,11.30
2022-08-30T09:50:53.233Z,8.60
2022-08-30T09:51:53.674Z,5.50
2022-08-30T09:52:55.528Z,10.90
2022-08-30T09:54:16.476Z,10.30
2022-08-30T09:54:55.404Z,7.30
2022-08-30T09:55:54.756Z,5.90
2022-08-30T09:56:55.033Z,7.50
2022-08-30T09:57:55.296Z,6.90
2022-08-30T09:58:55.595Z,6.60
2022-08-30T09:59:55.906Z,9.40
2022-08-30T10:00:56.233Z,7.90
2022-08-30T10:01:56.477Z,12.70
2022-08-30T10:02:56.778Z,10.30
2022-08-30T10:03:57.058Z,9.70
2022-08-30T10:04:57.408Z,6.40
2022-08-30T10:05:57.753Z,8.60
2022-08-30T10:06:57.949Z,8.50
2022-08-30T10:07:58.237Z,6.90
2022-08-30T10:08:58.522Z,5.70
2022-08-30T10:09:58.789Z,6.90
2022-08-30T10:10:59.068Z,5.10
2022-08-30T10:11:59.341Z,6.60
2022-08-30T10:12:59.613Z,7.50
2022-08-30T10:13:59.980Z,6.10
2022-08-30T10:15:00.253Z,9.20
2022-08-30T10:16:00.530Z,6.10
2022-08-30T10:17:00.772Z,6.00
2022-08-30T10:18:01.102Z,6.30
2022-08-30T10:19:01.413Z,4.80
2022-08-30T10:20:01.680Z,4.80
2022-08-30T10:21:01.944Z,6.80
2022-08-30T10:22:02.214Z,6.60
2022-08-30T10:23:02.474Z,6.50
2022-08-30T10:24:02.746Z,6.20
2022-08-30T10:25:03.046Z,6.70
2022-08-30T10:26:03.325Z,6.50
2022-08-30T10:27:03.595Z,5.30
2022-08-30T10:28:03.876Z,6.00
2022-08-30T10:29:04.146Z,6.80
2022-08-30T10:30:04.437Z,8.20
2022-08-30T10:31:04.726Z,9.80
2022-08-30T10:32:05.027Z,6.70
2022-08-30T10:33:05.297Z,7.60
2022-08-30T10:34:05.550Z,7.40
2022-08-30T10:35:05.818Z,7.60
2022-08-30T10:36:06.118Z,8.30
2022-08-30T10:37:06.399Z,5.30
2022-08-30T10:38:06.669Z,5.20
2022-08-30T10:39:06.940Z,6.10
2022-08-30T10:40:07.252Z,6.80
2022-08-30T10:41:07.560Z,5.90
2022-08-30T10:42:07.849Z,5.00
2022-08-30T10:43:08.171Z,10.50
2022-08-30T10:44:08.488Z,6.00
2022-08-30T10:45:08.776Z,6.00
2022-08-30T10:46:09.009Z,5.20
2022-08-30T10:47:09.250Z,4.60
2022-08-30T10:48:09.523Z,6.00
2022-08-30T10:49:09.823Z,6.00
2022-08-30T10:50:11.053Z,7.80
2022-08-30T10:51:10.373Z,5.30
2022-08-30T10:52:10.624Z,6.80
2022-08-30T10:53:10.884Z,4.60
2022-08-30T10:54:11.144Z,7.30
2022-08-30T10:55:11.403Z,5.10
2022-08-30T10:56:13.169Z,4.50
2022-08-30T10:57:11.887Z,4.60
2022-08-30T10:58:12.147Z,5.70
2022-08-30T10:59:12.397Z,3.30
2022-08-30T11:00:13.904Z,4.40
2022-08-30T11:01:13.049Z,3.70
2022-08-30T11:02:13.317Z,5.10
2022-08-30T11:03:13.671Z,3.50
2022-08-30T11:04:14.380Z,5.60
2022-08-30T11:05:14.188Z,4.70
2022-08-30T11:06:14.438Z,3.60
2022-08-30T11:07:14.698Z,3.70
2022-08-30T11:08:20.424Z,4.10
2022-08-30T11:09:16.221Z,7.80
2022-08-30T11:10:15.451Z,5.90
2022-08-30T11:11:15.708Z,4.20
2022-08-30T11:12:15.960Z,4.80
2022-08-30T11:13:16.434Z,3.50
2022-08-30T11:14:16.568Z,6.50
2022-08-30T11:15:16.842Z,4.40
2022-08-30T11:16:17.052Z,5.50
2022-08-30T11:17:17.303Z,3.70
2022-08-30T11:18:17.562Z,5.00
2022-08-30T11:19:18.884Z,3.80
2022-08-30T11:20:18.063Z,6.10
2022-08-30T11:21:18.324Z,4.90
2022-08-30T11:22:18.583Z,4.30
2022-08-30T11:23:18.948Z,3.80
2022-08-30T11:24:19.175Z,4.70
2022-08-30T11:25:19.435Z,4.00
2022-08-30T11:26:20.354Z,3.50
2022-08-30T11:27:20.004Z,3.70
2022-08-30T11:28:22.088Z,6.10
2022-08-30T11:29:20.576Z,3.80
2022-08-30T11:30:21.824Z,3.60
2022-08-30T11:31:21.147Z,4.40
2022-08-30T11:32:21.481Z,3.40
2022-08-30T11:33:21.735Z,5.10
2022-08-30T11:34:21.988Z,6.40
2022-08-30T11:35:22.280Z,7.30
2022-08-30T11:36:22.528Z,6.60
2022-08-30T11:37:22.788Z,4.20
2022-08-30T11:38:23.107Z,4.60
2022-08-30T11:39:23.361Z,5.10
2022-08-30T11:40:23.700Z,5.40
2022-08-30T11:41:23.960Z,7.70
2022-08-30T11:42:24.220Z,3.50
2022-08-30T11:43:25.458Z,6.20
2022-08-30T11:44:24.770Z,4.50
2022-08-30T11:45:28.257Z,6.40
2022-08-30T11:46:30.185Z,5.80
2022-08-30T11:47:30.457Z,5.40
2022-08-30T11:48:30.778Z,5.00
2022-08-30T11:49:31.027Z,4.60
2022-08-30T11:50:31.348Z,5.90
2022-08-30T11:51:31.598Z,4.50
2022-08-30T11:52:31.929Z,5.10
2022-08-30T11:53:32.199Z,7.10
2022-08-30T11:54:32.450Z,6.80
2022-08-30T11:55:32.749Z,5.80
2022-08-30T11:56:33.000Z,6.20
2022-08-30T11:57:33.249Z,4.00
2022-08-30T11:58:33.490Z,6.40
2022-08-30T11:59:33.751Z,4.90
2022-08-30T12:00:34.348Z,3.90
2022-08-30T12:01:49.916Z,8.20
2022-08-30T12:02:35.523Z,5.00
2022-08-30T12:03:35.292Z,9.10
2022-08-30T12:04:35.082Z,6.10
2022-08-30T12:05:35.332Z,6.00
2022-08-30T12:06:35.594Z,4.10
2022-08-30T12:07:36.006Z,3.90
2022-08-30T12:08:37.317Z,5.10
2022-08-30T12:09:36.524Z,5.30
2022-08-30T12:10:36.805Z,5.40
2022-08-30T12:11:37.124Z,4.00
2022-08-30T12:12:37.375Z,4.40
2022-08-30T12:13:37.823Z,4.90
2022-08-30T12:14:37.925Z,6.80
2022-08-30T12:15:38.165Z,4.40
2022-08-30T12:16:38.476Z,7.20
2022-08-30T12:17:38.717Z,4.20
2022-08-30T12:18:38.986Z,4.50
2022-08-30T12:19:41.333Z,4.00
2022-08-30T12:20:39.638Z,6.70
2022-08-30T12:21:43.970Z,4.00
2022-08-30T12:22:41.119Z,6.70
2022-08-30T12:23:44.347Z,5.80
2022-08-30T12:24:40.769Z,4.60
2022-08-30T12:25:41.029Z,4.30
2022-08-30T12:26:41.383Z,4.50
2022-08-30T12:27:41.580Z,5.10
2022-08-30T12:28:42.013Z,4.90
2022-08-30T12:29:42.158Z,6.30
2022-08-30T12:30:42.417Z,4.40
2022-08-30T12:31:42.688Z,5.50
2022-08-30T12:32:42.980Z,4.20
2022-08-30T12:33:43.202Z,8.10
2022-08-30T12:34:43.452Z,4.50
2022-08-30T12:35:43.723Z,5.10
2022-08-30T12:36:44.033Z,4.20
2022-08-30T12:37:44.283Z,4.30
2022-08-30T12:38:44.534Z,4.50
2022-08-30T12:39:44.794Z,4.30
2022-08-30T12:40:45.096Z,4.30
2022-08-30T12:41:45.344Z,5.90
2022-08-30T12:42:45.595Z,4.40
2022-08-30T12:43:45.853Z,5.90
2022-08-30T12:44:46.187Z,4.30
2022-08-30T12:45:50.797Z,4.30
2022-08-30T12:46:47.665Z,3.90
2022-08-30T12:47:46.946Z,5.00
2022-08-30T12:48:47.226Z,5.10
2022-08-30T12:49:47.487Z,5.20
2022-08-30T12:50:47.768Z,6.10
2022-08-30T12:51:48.028Z,4.80
2022-08-30T12:52:48.278Z,3.70
2022-08-30T12:53:51.282Z,4.40
2022-08-30T12:54:48.809Z,4.60
2022-08-30T12:55:49.077Z,5.40
2022-08-30T12:56:50.226Z,7.70
2022-08-30T12:57:49.592Z,6.00
2022-08-30T12:58:49.832Z,4.00
2022-08-30T12:59:55.497Z,5.90
2022-08-30T13:00:51.396Z,4.10
2022-08-30T13:01:50.707Z,7.20
2022-08-30T13:02:51.822Z,5.50
2022-08-30T13:03:51.133Z,6.60
2022-08-30T13:04:51.453Z,4.40
2022-08-30T13:05:53.165Z,6.20
2022-08-30T13:06:52.010Z,4.00
2022-08-30T13:07:52.253Z,4.10
2022-08-30T13:08:52.593Z,5.20
2022-08-30T13:09:52.823Z,4.30
2022-08-30T13:10:53.082Z,4.30
2022-08-30T13:11:53.373Z,5.00
2022-08-30T13:12:53.626Z,5.00
2022-08-30T13:13:53.875Z,4.30
2022-08-30T13:14:54.205Z,8.10
2022-08-30T13:15:54.516Z,5.00
2022-08-30T13:16:54.765Z,5.80
2022-08-30T13:17:55.007Z,4.80
2022-08-30T13:18:55.247Z,4.20
2022-08-30T13:19:55.507Z,3.60
2022-08-30T13:20:55.758Z,4.80